LAX weather

Los Angeles International Airport
Los Angeles, California, United States

Public forecast

Using degrees Fahrenheit for public forecast. Weather courtesy of forecast.io.

METAR (pilot weather report)

Retrieved 2017/03/28 12:53 UTC (53 minutes ago):

KLAX 281253Z 06009KT 10SM FEW008 14/03 A2999

TAF (pilot weather forecast)

Retrieved 2017/03/28 12:45 UTC (1 hour ago):

TAF KLAX 281136Z 2812/2918 03010G20KT P6SM SKC WS020/03030KT FM281400 31008KT P6SM SKC FM282000 27012KT P6SM SKC FM282300 27014G24KT P6SM SKC FM290300 26012KT P6SM SKC FM290600 VRB03KT P6SM SKC FM291200 05004KT P6SM SKC